createdAt,value
2022-11-01T00:02:04.640Z,53.37
2022-11-01T00:04:31.849Z,53.48
2022-11-01T00:06:58.814Z,53.48
2022-11-01T00:09:26.044Z,53.53
2022-11-01T00:11:53.089Z,53.41
2022-11-01T00:14:20.439Z,53.54
2022-11-01T00:16:47.598Z,53.30
2022-11-01T00:19:15.133Z,53.53
2022-11-01T00:21:42.201Z,53.50
2022-11-01T00:24:09.275Z,53.40
2022-11-01T00:26:35.972Z,53.46
2022-11-01T00:29:03.281Z,53.44
2022-11-01T00:31:30.346Z,53.52
2022-11-01T00:33:57.373Z,53.51
2022-11-01T00:36:24.367Z,53.56
2022-11-01T00:38:52.978Z,53.62
2022-11-01T00:41:21.667Z,53.57
2022-11-01T00:43:48.713Z,53.68
2022-11-01T00:46:16.482Z,53.70
2022-11-01T00:48:43.114Z,53.49
2022-11-01T00:51:09.742Z,53.56
2022-11-01T00:53:36.810Z,53.69
2022-11-01T00:56:05.670Z,53.66
2022-11-01T00:58:33.115Z,53.66
2022-11-01T01:01:00.956Z,53.52
2022-11-01T01:03:27.720Z,53.62
2022-11-01T01:05:55.486Z,53.53
2022-11-01T01:08:23.410Z,53.93
2022-11-01T01:10:50.447Z,53.62
2022-11-01T01:13:20.003Z,53.85
2022-11-01T01:15:47.291Z,53.68
2022-11-01T01:18:14.582Z,53.91
2022-11-01T01:20:41.712Z,53.78
2022-11-01T01:23:08.725Z,53.73
2022-11-01T01:25:35.754Z,53.88
2022-11-01T01:28:03.539Z,53.63
2022-11-01T01:30:30.677Z,53.64
2022-11-01T01:32:57.331Z,54.06
2022-11-01T01:35:24.453Z,53.88
2022-11-01T01:37:51.418Z,53.99
2022-11-01T01:40:18.234Z,54.06
2022-11-01T01:42:45.430Z,53.80
2022-11-01T01:45:24.288Z,54.09
2022-11-01T01:47:53.693Z,54.28
2022-11-01T01:50:35.431Z,54.16
2022-11-01T01:53:09.386Z,54.14
2022-11-01T01:55:41.878Z,54.26
2022-11-01T01:58:12.267Z,53.88
2022-11-01T02:00:39.558Z,54.12
2022-11-01T02:03:07.305Z,54.16
2022-11-01T02:05:46.496Z,54.16
2022-11-01T02:08:15.640Z,54.11
2022-11-01T02:10:43.381Z,54.17
2022-11-01T02:13:16.315Z,54.30
2022-11-01T02:16:20.800Z,54.45
2022-11-01T02:18:56.684Z,54.23
2022-11-01T02:21:39.302Z,54.67
2022-11-01T02:24:19.880Z,54.40
2022-11-01T02:27:20.635Z,54.26
2022-11-01T02:30:20.437Z,54.38
2022-11-01T02:33:10.800Z,54.40
2022-11-01T02:35:47.089Z,54.40
2022-11-01T02:38:27.403Z,54.12
2022-11-01T02:41:03.592Z,54.30
2022-11-01T02:43:36.997Z,54.55
2022-11-01T02:46:26.175Z,54.30
2022-11-01T02:48:53.918Z,54.17
2022-11-01T02:51:23.094Z,54.17
2022-11-01T02:53:55.633Z,54.33
2022-11-01T02:56:22.822Z,54.29
2022-11-01T02:58:52.338Z,54.52
2022-11-01T03:01:26.499Z,54.51
2022-11-01T03:03:56.218Z,54.34
2022-11-01T03:06:42.015Z,54.70
2022-11-01T03:09:12.418Z,54.42
2022-11-01T03:11:55.303Z,54.54
2022-11-01T03:14:54.964Z,54.63
2022-11-01T03:17:39.566Z,54.62
2022-11-01T03:20:15.642Z,54.73
2022-11-01T03:22:46.722Z,54.67
2022-11-01T03:25:42.250Z,54.55
2022-11-01T03:28:18.228Z,54.95
2022-11-01T03:31:09.451Z,55.06
2022-11-01T03:33:42.357Z,54.97
2022-11-01T03:36:14.783Z,54.85
2022-11-01T03:38:49.610Z,55.24
2022-11-01T03:41:20.033Z,54.84
2022-11-01T03:43:47.749Z,54.93
2022-11-01T03:46:16.308Z,55.26
2022-11-01T03:48:43.399Z,55.15
2022-11-01T03:51:10.572Z,54.94
2022-11-01T03:53:37.673Z,55.03
2022-11-01T03:56:05.042Z,54.93
2022-11-01T03:58:44.927Z,54.70
2022-11-01T04:01:14.704Z,54.66
2022-11-01T04:03:42.154Z,54.56
2022-11-01T04:06:09.292Z,54.45
2022-11-01T04:08:40.055Z,54.44
2022-11-01T04:11:06.809Z,54.29
2022-11-01T04:13:33.935Z,54.18
2022-11-01T04:16:19.279Z,53.93
2022-11-01T04:19:04.523Z,53.81
2022-11-01T04:21:32.692Z,53.96
2022-11-01T04:23:59.268Z,53.43
2022-11-01T04:26:26.767Z,53.63
2022-11-01T04:28:59.679Z,53.44
2022-11-01T04:31:27.533Z,53.35
2022-11-01T04:33:55.294Z,53.51
2022-11-01T04:36:22.459Z,53.52
2022-11-01T04:38:55.749Z,53.38
2022-11-01T04:41:24.573Z,53.22
2022-11-01T04:43:54.623Z,53.39
2022-11-01T04:46:22.306Z,53.01
2022-11-01T04:48:50.028Z,53.03
2022-11-01T04:51:17.484Z,53.15
2022-11-01T04:53:44.549Z,52.88
2022-11-01T04:56:13.564Z,52.84
2022-11-01T04:58:44.962Z,52.42
2022-11-01T05:01:14.014Z,52.14
2022-11-01T05:03:41.263Z,52.22
2022-11-01T05:06:07.869Z,51.83
2022-11-01T05:08:34.492Z,51.97
2022-11-01T05:11:01.584Z,51.61
2022-11-01T05:13:28.083Z,51.56
2022-11-01T05:16:17.894Z,51.66
2022-11-01T05:18:42.944Z,51.54
2022-11-01T05:21:10.007Z,51.61
2022-11-01T05:23:37.048Z,51.51
2022-11-01T05:26:04.248Z,51.50
2022-11-01T05:28:30.842Z,51.68
2022-11-01T05:30:59.129Z,51.09
2022-11-01T05:33:25.891Z,50.97
2022-11-01T05:35:53.020Z,51.07
2022-11-01T05:38:20.075Z,50.60
2022-11-01T05:40:46.809Z,50.77
2022-11-01T05:43:13.892Z,50.58
2022-11-01T05:45:40.926Z,50.19
2022-11-01T05:48:08.038Z,50.40
2022-11-01T05:50:35.160Z,50.55
2022-11-01T05:53:08.560Z,50.12
2022-11-01T05:55:35.899Z,50.12
2022-11-01T05:58:03.131Z,50.51
2022-11-01T06:00:29.767Z,50.46
2022-11-01T06:02:59.877Z,50.30
2022-11-01T06:05:28.598Z,50.24
2022-11-01T06:07:55.961Z,50.36
2022-11-01T06:10:22.524Z,50.15
2022-11-01T06:12:49.299Z,50.24
2022-11-01T06:15:16.364Z,50.64
2022-11-01T06:17:43.034Z,50.85
2022-11-01T06:20:10.182Z,50.68
2022-11-01T06:22:37.353Z,50.88
2022-11-01T06:25:05.690Z,50.86
2022-11-01T06:27:33.003Z,50.87
2022-11-01T06:29:59.537Z,51.08
2022-11-01T06:32:26.235Z,50.96
2022-11-01T06:34:53.396Z,50.88
2022-11-01T06:37:20.000Z,51.04
2022-11-01T06:39:46.573Z,51.03
2022-11-01T06:42:13.230Z,51.01
2022-11-01T06:44:45.359Z,50.95
2022-11-01T06:47:55.170Z,50.87
2022-11-01T06:50:38.529Z,51.09
2022-11-01T06:53:09.724Z,51.22
2022-11-01T06:55:43.247Z,51.31
2022-11-01T06:58:22.591Z,51.09
2022-11-01T07:01:00.456Z,51.43
2022-11-01T07:03:27.657Z,51.38
2022-11-01T07:06:23.572Z,51.23
2022-11-01T07:08:55.467Z,51.29
2022-11-01T07:11:33.763Z,50.77
2022-11-01T07:14:06.591Z,51.32
2022-11-01T07:16:44.859Z,50.91
2022-11-01T07:19:32.280Z,50.88
2022-11-01T07:22:07.131Z,50.94
2022-11-01T07:24:38.862Z,50.96
2022-11-01T07:27:20.689Z,50.40
2022-11-01T07:29:57.046Z,50.66
2022-11-01T07:32:31.129Z,50.79
2022-11-01T07:35:50.736Z,50.58
2022-11-01T07:39:26.105Z,50.46
2022-11-01T07:42:31.965Z,49.74
2022-11-01T07:44:53.867Z,50.57
2022-11-01T07:47:32.769Z,50.37
2022-11-01T07:53:27.392Z,49.72
2022-11-01T07:55:54.098Z,48.79
2022-11-01T07:58:20.938Z,48.80
2022-11-01T08:00:50.764Z,48.32
2022-11-01T08:03:19.528Z,48.30
2022-11-01T08:05:48.105Z,48.36
2022-11-01T08:08:18.376Z,47.91
2022-11-01T08:10:45.741Z,48.07
2022-11-01T08:13:25.324Z,47.06
2022-11-01T08:15:53.295Z,47.73
2022-11-01T08:18:22.533Z,47.92
2022-11-01T08:20:49.594Z,47.79
2022-11-01T08:23:16.913Z,48.03
2022-11-01T08:25:43.501Z,47.72
2022-11-01T08:28:19.236Z,47.08
2022-11-01T08:30:46.985Z,46.36
2022-11-01T08:33:13.562Z,46.88
2022-11-01T08:35:41.151Z,47.48
2022-11-01T08:38:08.579Z,47.44
2022-11-01T08:40:35.219Z,47.33
2022-11-01T08:43:02.125Z,47.17
2022-11-01T08:45:29.361Z,47.41
2022-11-01T08:48:01.036Z,46.66
2022-11-01T08:50:28.835Z,47.69
2022-11-01T08:52:55.652Z,47.45
2022-11-01T08:55:25.481Z,47.30
2022-11-01T08:58:02.361Z,46.35
2022-11-01T09:00:33.518Z,47.30
2022-11-01T09:06:05.274Z,47.27
2022-11-01T09:08:48.639Z,47.02
2022-11-01T09:11:15.287Z,47.45
2022-11-01T09:13:42.120Z,47.22
2022-11-01T09:16:11.273Z,47.23
2022-11-01T09:18:38.335Z,47.50
2022-11-01T09:21:09.112Z,47.65
2022-11-01T09:23:41.948Z,47.52
2022-11-01T09:26:11.550Z,47.82
2022-11-01T09:28:38.403Z,48.13
2022-11-01T09:31:20.080Z,48.64
2022-11-01T09:33:50.434Z,48.27
2022-11-01T09:36:27.008Z,48.25
2022-11-01T09:38:59.084Z,48.94
2022-11-01T09:41:47.839Z,48.51
2022-11-01T09:44:21.590Z,48.97
2022-11-01T09:47:02.996Z,49.17
2022-11-01T09:49:34.407Z,49.28
2022-11-01T09:52:01.466Z,49.55
2022-11-01T09:54:35.805Z,49.59
2022-11-01T09:57:10.690Z,49.86
2022-11-01T09:59:49.823Z,49.45
2022-11-01T10:02:33.092Z,49.33
2022-11-01T10:05:18.623Z,49.80
2022-11-01T10:07:57.089Z,49.80
2022-11-01T10:10:36.843Z,49.88
2022-11-01T10:13:19.778Z,50.00
2022-11-01T10:16:01.665Z,50.34
2022-11-01T10:18:38.086Z,50.32
2022-11-01T10:21:12.626Z,50.37
2022-11-01T10:23:45.331Z,50.52
2022-11-01T10:26:18.379Z,50.98
2022-11-01T10:28:49.238Z,50.53
2022-11-01T10:31:18.864Z,50.83
2022-11-01T10:33:49.825Z,51.20
2022-11-01T10:36:23.641Z,51.48
2022-11-01T10:41:53.045Z,51.52
2022-11-01T10:44:28.638Z,51.60
2022-11-01T10:46:56.933Z,51.49
2022-11-01T10:52:35.501Z,51.26
2022-11-01T10:55:03.788Z,51.67
2022-11-01T10:57:38.116Z,51.27
2022-11-01T11:00:06.984Z,51.48
2022-11-01T11:02:44.631Z,51.41
2022-11-01T11:05:17.982Z,51.46
2022-11-01T11:07:45.025Z,51.80
2022-11-01T11:10:29.775Z,51.41
2022-11-01T11:13:05.924Z,51.77
2022-11-01T11:15:53.362Z,51.58
2022-11-01T11:18:29.877Z,51.57
2022-11-01T11:21:04.499Z,52.05
2022-11-01T11:23:44.584Z,51.71
2022-11-01T11:26:16.996Z,51.72
2022-11-01T11:28:51.426Z,52.12
2022-11-01T11:31:28.951Z,51.88
2022-11-01T11:34:04.757Z,51.92
2022-11-01T11:36:38.013Z,52.11
2022-11-01T11:39:05.703Z,52.39
2022-11-01T11:41:39.245Z,51.80
2022-11-01T11:44:31.450Z,52.01
2022-11-01T11:46:58.156Z,52.51
2022-11-01T11:49:28.093Z,52.40
2022-11-01T11:51:55.355Z,52.51
2022-11-01T11:54:26.740Z,52.63
2022-11-01T11:57:10.765Z,52.76
2022-11-01T11:59:38.901Z,52.67
2022-11-01T12:02:19.829Z,52.41
2022-11-01T12:04:53.304Z,52.53
2022-11-01T12:07:46.001Z,53.05
2022-11-01T12:10:38.210Z,52.84
2022-11-01T12:13:24.973Z,52.87
2022-11-01T12:16:16.844Z,52.80
2022-11-01T12:18:54.028Z,52.97
2022-11-01T12:21:24.691Z,52.81
2022-11-01T12:24:20.473Z,52.77
2022-11-01T12:26:49.797Z,52.97
2022-11-01T12:29:32.462Z,52.90
2022-11-01T12:32:22.858Z,53.07
2022-11-01T12:34:53.106Z,53.10
2022-11-01T12:37:47.039Z,53.06
2022-11-01T12:40:21.299Z,53.31
2022-11-01T12:42:52.055Z,53.01
2022-11-01T12:45:32.069Z,53.10
2022-11-01T12:48:04.195Z,53.09
2022-11-01T12:50:43.883Z,53.16
2022-11-01T12:53:44.738Z,53.24
2022-11-01T12:56:12.241Z,53.29
2022-11-01T12:59:14.122Z,52.89
2022-11-01T13:02:25.403Z,53.39
2022-11-01T13:05:34.161Z,53.64
2022-11-01T13:08:42.889Z,53.45
2022-11-01T13:12:09.014Z,53.20
2022-11-01T13:15:16.470Z,53.10
2022-11-01T13:18:10.673Z,53.13
2022-11-01T13:20:48.789Z,53.41
2022-11-01T13:23:45.512Z,53.11
2022-11-01T13:26:35.788Z,53.43
2022-11-01T13:29:17.741Z,53.28
2022-11-01T13:31:57.417Z,53.23
2022-11-01T13:34:56.541Z,53.46
2022-11-01T13:37:55.431Z,53.40
2022-11-01T13:40:58.979Z,53.11
2022-11-01T13:43:45.307Z,53.23
2022-11-01T13:46:36.108Z,53.28
2022-11-01T13:49:42.137Z,53.09
2022-11-01T13:52:20.638Z,53.37
2022-11-01T13:54:53.933Z,53.17
2022-11-01T13:57:24.811Z,53.18
2022-11-01T14:00:06.912Z,53.36
2022-11-01T14:03:06.435Z,53.13
2022-11-01T14:05:39.176Z,52.93
2022-11-01T14:08:37.584Z,53.16
2022-11-01T14:11:14.585Z,53.19
2022-11-01T14:14:30.200Z,53.02
2022-11-01T14:17:31.481Z,53.42
2022-11-01T14:20:08.922Z,53.08
2022-11-01T14:22:44.993Z,53.15
2022-11-01T14:25:24.740Z,53.24
2022-11-01T14:28:19.828Z,53.35
2022-11-01T14:31:23.071Z,53.28
2022-11-01T14:34:00.196Z,53.13
2022-11-01T14:36:50.324Z,53.33
2022-11-01T14:39:29.500Z,53.10
2022-11-01T14:42:17.445Z,53.20
2022-11-01T14:44:52.699Z,53.08
2022-11-01T14:47:31.481Z,52.90
2022-11-01T14:50:02.648Z,53.01
2022-11-01T14:52:54.261Z,52.98
2022-11-01T14:55:29.938Z,52.77
2022-11-01T14:58:15.504Z,52.52
2022-11-01T15:00:42.089Z,52.91
2022-11-01T15:03:10.617Z,52.77
2022-11-01T15:05:52.477Z,52.74
2022-11-01T15:08:30.283Z,53.07
2022-11-01T15:11:00.931Z,52.72
2022-11-01T15:13:29.838Z,53.03
2022-11-01T15:16:03.667Z,52.47
2022-11-01T15:18:31.691Z,52.51
2022-11-01T15:21:00.137Z,52.51
2022-11-01T15:23:37.124Z,52.46
2022-11-01T15:26:14.631Z,52.39
2022-11-01T15:28:45.933Z,52.82
2022-11-01T15:31:18.022Z,52.69
2022-11-01T15:34:18.872Z,52.44
2022-11-01T15:36:45.933Z,52.42
2022-11-01T15:39:22.538Z,52.76
2022-11-01T15:41:50.294Z,52.80
2022-11-01T15:44:23.493Z,52.85
2022-11-01T15:46:52.964Z,52.79
2022-11-01T15:49:24.704Z,52.66
2022-11-01T15:51:58.714Z,52.60
2022-11-01T15:54:45.274Z,52.70
2022-11-01T15:57:33.429Z,52.98
2022-11-01T16:00:08.507Z,53.06
2022-11-01T16:02:44.617Z,52.52
2022-11-01T16:05:16.503Z,52.80
2022-11-01T16:07:44.075Z,52.56
2022-11-01T16:10:21.670Z,52.43
2022-11-01T16:12:49.861Z,52.51
2022-11-01T16:15:32.220Z,52.51
2022-11-01T16:18:00.437Z,52.42
2022-11-01T16:20:46.988Z,52.60
2022-11-01T16:23:28.496Z,52.51
2022-11-01T16:26:06.703Z,52.67
2022-11-01T16:28:59.565Z,52.82
2022-11-01T16:31:29.530Z,52.44
2022-11-01T16:33:57.140Z,52.74
2022-11-01T16:36:32.315Z,52.61
2022-11-01T16:38:58.972Z,52.50
2022-11-01T16:41:39.662Z,52.57
2022-11-01T16:44:16.044Z,52.52
2022-11-01T16:46:42.911Z,52.58
2022-11-01T16:49:15.394Z,52.52
2022-11-01T16:51:42.554Z,52.43
2022-11-01T16:54:10.398Z,52.42
2022-11-01T16:56:55.179Z,52.56
2022-11-01T16:59:48.357Z,51.88
2022-11-01T17:02:24.886Z,52.48
2022-11-01T17:04:58.959Z,52.01
2022-11-01T17:07:25.729Z,52.16
2022-11-01T17:09:52.323Z,52.01
2022-11-01T17:12:19.088Z,51.99
2022-11-01T17:14:46.422Z,52.12
2022-11-01T17:17:17.132Z,52.13
2022-11-01T17:19:46.624Z,52.18
2022-11-01T17:22:18.329Z,52.33
2022-11-01T17:24:46.095Z,52.09
2022-11-01T17:27:14.451Z,51.93
2022-11-01T17:29:41.088Z,52.15
2022-11-01T17:32:09.633Z,52.03
2022-11-01T17:34:36.976Z,52.06
2022-11-01T17:37:05.240Z,52.06
2022-11-01T17:39:31.968Z,51.92
2022-11-01T17:41:59.313Z,52.16
2022-11-01T17:44:26.483Z,51.94
2022-11-01T17:46:53.048Z,52.02
2022-11-01T17:49:21.782Z,51.81
2022-11-01T17:51:54.234Z,51.80
2022-11-01T17:54:21.947Z,52.08
2022-11-01T17:56:49.013Z,52.16
2022-11-01T17:59:16.180Z,52.27
2022-11-01T18:01:43.397Z,52.55
2022-11-01T18:04:10.473Z,52.15
2022-11-01T18:06:37.083Z,52.36
2022-11-01T18:09:18.159Z,52.27
2022-11-01T18:11:52.253Z,52.28
2022-11-01T18:14:31.514Z,52.26
2022-11-01T18:17:27.310Z,51.81
2022-11-01T18:20:05.793Z,51.76
2022-11-01T18:22:45.212Z,52.08
2022-11-01T18:25:26.197Z,51.95
2022-11-01T18:27:55.694Z,52.19
2022-11-01T18:30:22.471Z,52.20
2022-11-01T18:33:01.797Z,51.72
2022-11-01T18:35:39.487Z,52.05
2022-11-01T18:38:23.595Z,52.49
2022-11-01T18:41:00.550Z,52.04
2022-11-01T18:43:31.310Z,52.19
2022-11-01T18:46:23.269Z,52.01
2022-11-01T18:48:45.360Z,52.12
2022-11-01T18:51:28.366Z,51.72
2022-11-01T18:54:11.056Z,51.70
2022-11-01T18:56:43.615Z,51.89
2022-11-01T18:59:25.476Z,51.99
2022-11-01T19:01:59.053Z,51.98
2022-11-01T19:04:31.222Z,52.03
2022-11-01T19:07:22.916Z,51.51
2022-11-01T19:09:53.513Z,52.01
2022-11-01T19:12:39.505Z,52.15
2022-11-01T19:15:29.491Z,51.68
2022-11-01T19:18:07.532Z,51.63
2022-11-01T19:20:50.246Z,51.46
2022-11-01T19:23:23.254Z,51.77
2022-11-01T19:25:51.028Z,51.77
2022-11-01T19:28:37.613Z,51.53
2022-11-01T19:31:16.519Z,51.42
2022-11-01T19:33:46.470Z,51.77
2022-11-01T19:36:20.670Z,51.16
2022-11-01T19:38:53.123Z,51.42
2022-11-01T19:41:40.061Z,51.93
2022-11-01T19:44:14.932Z,51.93
2022-11-01T19:46:41.624Z,51.68
2022-11-01T19:49:25.601Z,51.61
2022-11-01T19:52:24.268Z,51.52
2022-11-01T19:54:53.682Z,51.69
2022-11-01T19:57:35.775Z,51.28
2022-11-01T20:00:19.900Z,51.72
2022-11-01T20:02:49.217Z,51.49
2022-11-01T20:05:30.689Z,51.70
2022-11-01T20:08:20.309Z,51.71
2022-11-01T20:10:47.538Z,51.47
2022-11-01T20:13:14.158Z,51.50
2022-11-01T20:15:40.824Z,51.78
2022-11-01T20:18:07.571Z,51.29
2022-11-01T20:20:34.292Z,51.52
2022-11-01T20:23:24.684Z,51.47
2022-11-01T20:25:47.880Z,51.43
2022-11-01T20:28:17.574Z,51.66
2022-11-01T20:30:44.584Z,51.76
2022-11-01T20:33:11.593Z,51.78
2022-11-01T20:35:38.599Z,51.91
2022-11-01T20:38:05.809Z,51.65
2022-11-01T20:40:32.809Z,51.82
2022-11-01T20:42:59.417Z,51.82
2022-11-01T20:45:26.256Z,51.54
2022-11-01T20:47:53.376Z,51.63
2022-11-01T20:50:20.135Z,51.64
2022-11-01T20:52:49.222Z,51.48
2022-11-01T20:55:17.566Z,51.86
2022-11-01T20:57:44.710Z,51.96
2022-11-01T21:00:18.829Z,51.97
2022-11-01T21:02:49.277Z,51.66
2022-11-01T21:05:27.349Z,51.76
2022-11-01T21:07:58.690Z,51.54
2022-11-01T21:10:36.060Z,51.98
2022-11-01T21:13:20.461Z,51.90
2022-11-01T21:15:48.800Z,51.91
2022-11-01T21:18:15.283Z,51.90
2022-11-01T21:20:45.783Z,51.92
2022-11-01T21:23:29.642Z,51.45
2022-11-01T21:26:01.359Z,51.95
2022-11-01T21:28:32.667Z,51.89
2022-11-01T21:31:14.555Z,51.56
2022-11-01T21:33:51.523Z,51.75
2022-11-01T21:36:21.130Z,51.99
2022-11-01T21:38:50.487Z,51.38
2022-11-01T21:41:28.754Z,51.42
2022-11-01T21:43:58.783Z,51.72
2022-11-01T21:46:37.234Z,51.42
2022-11-01T21:49:35.444Z,51.40
2022-11-01T21:52:05.300Z,51.62
2022-11-01T21:54:36.946Z,51.61
2022-11-01T21:57:06.075Z,51.55
2022-11-01T21:59:36.428Z,51.80
2022-11-01T22:02:05.642Z,51.95
2022-11-01T22:04:34.296Z,51.51
2022-11-01T22:07:05.146Z,51.67
2022-11-01T22:09:32.641Z,50.64
2022-11-01T22:11:59.692Z,50.47
2022-11-01T22:14:27.084Z,50.25
2022-11-01T22:16:53.694Z,50.20
2022-11-01T22:19:20.494Z,50.30
2022-11-01T22:21:47.586Z,49.77
2022-11-01T22:24:14.271Z,49.82
2022-11-01T22:26:40.856Z,49.72
2022-11-01T22:29:07.547Z,50.09
2022-11-01T22:31:34.197Z,49.85
2022-11-01T22:34:02.457Z,49.92
2022-11-01T22:36:30.954Z,50.15
2022-11-01T22:38:59.866Z,50.28
2022-11-01T22:41:33.157Z,49.89
2022-11-01T22:44:05.412Z,50.12
2022-11-01T22:46:52.365Z,50.25
2022-11-01T22:49:46.098Z,50.07
2022-11-01T22:52:31.688Z,50.43
2022-11-01T22:55:27.051Z,50.10
2022-11-01T22:58:00.756Z,50.21
2022-11-01T23:00:27.932Z,50.41
2022-11-01T23:03:13.316Z,50.19
2022-11-01T23:05:41.761Z,50.35
2022-11-01T23:08:21.028Z,50.32
2022-11-01T23:10:51.268Z,50.52
2022-11-01T23:13:44.580Z,50.34
2022-11-01T23:16:29.008Z,50.70
2022-11-01T23:19:00.029Z,50.48
2022-11-01T23:21:27.870Z,50.49
2022-11-01T23:23:54.642Z,50.69
2022-11-01T23:26:24.066Z,51.00
2022-11-01T23:28:54.563Z,50.79
2022-11-01T23:31:22.396Z,50.87
2022-11-01T23:33:50.129Z,50.88
2022-11-01T23:36:24.019Z,50.72
2022-11-01T23:38:56.543Z,50.63
2022-11-01T23:41:38.403Z,50.50
2022-11-01T23:44:35.952Z,50.57
2022-11-01T23:47:25.753Z,50.53
2022-11-01T23:50:00.025Z,50.49
2022-11-01T23:52:41.241Z,50.44
2022-11-01T23:55:19.670Z,50.42
2022-11-01T23:57:46.826Z,50.58
